Elmer, OK (73539)

1:05 PM CDT on August 29, 2016 (GMT -0500)
South Altus - Denise St. | | Change Station

Elev 1398 ft 34.63 °N, 99.32 °W | Updated 8 minutes ago

Mostly Cloudy
Mostly Cloudy
88.4 °F
Feels Like 94 °F
N
3.0
Wind Variable Wind from NE
Gusts 6.0 mph

Today
High -- | Low -- °F
--% Chance of Precip.
Yesterday
High -- | Low -- °F
Precip. -- in
Pressure 30.09 in
Visibility 10.0 miles
Clouds Scattered Clouds 3600 ft
Mostly Cloudy 4800 ft
Mostly Cloudy 6000 ft
Heat Index 94 °F
Dew Point 70 °F
Humidity 55%
Rainfall 0.00 in
Snow Depth Not available.
7:08 AM 8:06 PM
Waning Crescent, 7% visible
METAR KLTS 291758Z AUTO VRB05KT 10SM SCT036 BKN048 BKN060 30/19 A3013 RMK AO2 SLP189 60000 T02950190 10295 20191 58006
Pressure 30.09 in
Visibility 10.0 miles
Clouds Scattered Clouds 3600 ft
Mostly Cloudy 4800 ft
Mostly Cloudy 6000 ft
Heat Index 94 °F
Dew Point 70 °F
Humidity 55%
Rainfall 0.00 in
Snow Depth Not available.
7:08 AM 8:06 PM
Waning Crescent, 7% visible
METAR KLTS 291758Z AUTO VRB05KT 10SM SCT036 BKN048 BKN060 30/19 A3013 RMK AO2 SLP189 60000 T02950190 10295 20191 58006

10-Day Weather Forecast

Almanac

Astronomy

Aug. 29, 2016 Rise Set
Actual Time
Civil Twilight
Nautical Twilight
Astronomical Twilight
Moon
Length of Visible Light
Length of Day
Tomorrow will be .
, % of the Moon is Illuminated

Today's Extremes

State Highs State Lows

Community

WunderPhotos

Upload Photos

1,935,685 photos uploaded!

WunderBlog® & News

Nearby

Air Quality

  Air Quality AQ Index Pollutant
Not available.

Snow Depth

Station Depth Elevation

Earthquake Activity

City Distance Mag. Time & Date
Minimum magnitude displayed is 2.5.

Coastal Water Temperatures

Place Temperature

Stations

Nearby Weather Stations

Station Location Temp. Windchill Dew Point Humidity Wind Precip. Elev Updated Type
                   

Watches & Warnings

There are currently no watches in effect.